createdAt,value
2018-12-21T00:01:47.872Z,60.54
2018-12-21T00:04:19.723Z,60.47
2018-12-21T00:06:51.441Z,60.35
2018-12-21T00:09:21.966Z,60.20
2018-12-21T00:11:53.679Z,60.14
2018-12-21T00:14:31.077Z,60.06
2018-12-21T00:17:03.298Z,60.38
2018-12-21T00:19:35.801Z,59.45
2018-12-21T00:22:11.934Z,59.76
2018-12-21T00:24:56.539Z,59.42
2018-12-21T00:27:45.236Z,59.63
2018-12-21T00:30:24.467Z,59.82
2018-12-21T00:33:04.970Z,59.45
2018-12-21T00:35:40.080Z,60.18
2018-12-21T00:38:24.606Z,59.49
2018-12-21T00:41:00.340Z,59.75
2018-12-21T00:43:37.864Z,59.75
2018-12-21T00:46:44.753Z,59.92
2018-12-21T00:49:16.895Z,60.08
2018-12-21T00:51:46.236Z,60.20
2018-12-21T00:54:16.583Z,60.33
2018-12-21T00:56:47.322Z,59.87
2018-12-21T00:59:19.835Z,59.82
2018-12-21T01:01:50.820Z,60.00
2018-12-21T01:04:20.751Z,60.18
2018-12-21T01:06:51.720Z,59.78
2018-12-21T01:09:21.912Z,59.37
2018-12-21T01:11:53.922Z,58.93
2018-12-21T01:14:31.785Z,59.28
2018-12-21T01:17:15.195Z,59.15
2018-12-21T01:22:42.901Z,58.78
2018-12-21T01:25:12.750Z,59.93
2018-12-21T01:27:41.173Z,61.00
2018-12-21T01:30:20.826Z,60.55
2018-12-21T01:32:51.438Z,60.99
2018-12-21T01:35:22.624Z,60.46
2018-12-21T01:37:53.523Z,60.04
2018-12-21T01:40:29.393Z,60.32
2018-12-21T01:43:02.634Z,60.34
2018-12-21T01:45:32.345Z,61.12
2018-12-21T01:48:01.484Z,61.27
2018-12-21T01:50:36.068Z,61.50
2018-12-21T01:53:07.297Z,61.06
2018-12-21T01:55:37.214Z,61.19
2018-12-21T01:58:10.233Z,61.79
2018-12-21T02:00:45.828Z,60.72
2018-12-21T02:03:16.934Z,61.76
2018-12-21T02:06:41.378Z,61.32
2018-12-21T02:09:12.804Z,61.92
2018-12-21T02:11:41.738Z,61.48
2018-12-21T02:14:12.650Z,60.97
2018-12-21T02:16:43.439Z,61.13
2018-12-21T02:19:13.832Z,61.19
2018-12-21T02:21:44.675Z,61.96
2018-12-21T02:24:16.572Z,62.27
2018-12-21T02:26:46.417Z,61.68
2018-12-21T02:29:16.511Z,61.22
2018-12-21T02:31:47.009Z,60.96
2018-12-21T02:34:17.732Z,61.61
2018-12-21T02:36:48.050Z,61.69
2018-12-21T02:39:18.883Z,60.88
2018-12-21T02:41:47.758Z,61.30
2018-12-21T02:44:18.238Z,60.81
2018-12-21T02:46:48.631Z,60.74
2018-12-21T02:49:18.286Z,60.72
2018-12-21T02:51:49.074Z,60.95
2018-12-21T02:54:19.243Z,60.58
2018-12-21T02:56:49.519Z,61.36
2018-12-21T02:59:20.612Z,61.37
2018-12-21T03:01:50.627Z,61.20
2018-12-21T03:04:20.491Z,60.25
2018-12-21T03:06:53.797Z,59.88
2018-12-21T03:09:26.449Z,59.26
2018-12-21T03:11:57.936Z,59.78
2018-12-21T03:14:34.661Z,62.12
2018-12-21T03:17:07.901Z,61.49
2018-12-21T03:19:43.540Z,61.85
2018-12-21T03:22:15.289Z,62.05
2018-12-21T03:24:45.015Z,62.16
2018-12-21T03:27:16.337Z,62.07
2018-12-21T03:29:53.290Z,63.22
2018-12-21T03:32:23.274Z,62.29
2018-12-21T03:34:54.918Z,61.52
2018-12-21T03:37:25.280Z,61.15
2018-12-21T03:39:55.341Z,61.44
2018-12-21T03:42:26.768Z,61.27
2018-12-21T03:44:56.946Z,61.04
2018-12-21T03:47:28.291Z,60.82
2018-12-21T03:49:58.330Z,60.53
2018-12-21T03:52:29.403Z,60.76
2018-12-21T03:54:59.955Z,60.49
2018-12-21T03:57:29.222Z,60.56
2018-12-21T03:59:59.223Z,60.40
2018-12-21T04:02:31.727Z,60.26
2018-12-21T04:05:03.499Z,59.58
2018-12-21T04:07:33.331Z,60.34
2018-12-21T04:10:04.907Z,60.72
2018-12-21T04:12:35.109Z,60.38
2018-12-21T04:15:07.365Z,60.66
2018-12-21T04:17:42.578Z,59.96
2018-12-21T04:20:15.080Z,60.87
2018-12-21T04:25:33.713Z,61.97
2018-12-21T04:28:05.053Z,62.93
2018-12-21T04:30:37.638Z,63.59
2018-12-21T04:33:08.211Z,63.99
2018-12-21T04:35:36.888Z,63.74
2018-12-21T04:38:07.706Z,63.59
2018-12-21T04:40:38.632Z,64.32
2018-12-21T04:43:09.096Z,64.31
2018-12-21T04:45:40.216Z,64.91
2018-12-21T04:48:10.753Z,65.08
2018-12-21T04:50:42.195Z,65.23
2018-12-21T04:53:13.993Z,65.89
2018-12-21T04:55:42.663Z,65.92
2018-12-21T04:59:50.033Z,66.80
2018-12-21T05:02:19.872Z,66.91
2018-12-21T05:04:51.946Z,67.82
2018-12-21T05:07:20.488Z,67.78
2018-12-21T05:09:48.932Z,67.88
2018-12-21T05:12:17.555Z,68.62
2018-12-21T05:16:13.447Z,68.79
2018-12-21T05:18:41.974Z,69.41
2018-12-21T05:21:10.459Z,69.49
2018-12-21T05:23:38.451Z,69.58
2018-12-21T05:26:06.873Z,69.66
2018-12-21T05:28:39.467Z,69.32
2018-12-21T05:31:10.987Z,69.99
2018-12-21T05:33:41.471Z,70.11
2018-12-21T05:36:13.291Z,70.29
2018-12-21T05:38:42.049Z,71.11
2018-12-21T05:41:15.573Z,70.89
2018-12-21T05:43:44.215Z,70.29
2018-12-21T05:46:13.081Z,70.62
2018-12-21T05:48:41.567Z,70.76
2018-12-21T05:51:11.072Z,70.95
2018-12-21T05:53:40.336Z,71.53
2018-12-21T05:56:09.131Z,71.71
2018-12-21T05:58:38.092Z,72.06
2018-12-21T06:01:06.874Z,72.50
2018-12-21T06:03:35.678Z,71.75
2018-12-21T06:06:03.733Z,71.90
2018-12-21T06:08:34.948Z,72.37
2018-12-21T06:13:08.989Z,72.57
2018-12-21T06:15:38.272Z,72.48
2018-12-21T06:18:08.483Z,72.50
2018-12-21T06:20:37.264Z,72.87
2018-12-21T06:23:09.583Z,72.47
2018-12-21T06:25:36.400Z,73.02
2018-12-21T06:28:05.229Z,72.62
2018-12-21T06:30:34.608Z,72.84
2018-12-21T06:33:04.327Z,72.55
2018-12-21T06:35:33.764Z,72.57
2018-12-21T06:38:02.806Z,72.93
2018-12-21T06:40:33.639Z,72.44
2018-12-21T06:43:02.126Z,72.54
2018-12-21T06:45:31.089Z,72.15
2018-12-21T06:47:59.133Z,72.96
2018-12-21T06:50:29.926Z,72.48
2018-12-21T06:52:58.234Z,72.73
2018-12-21T06:55:27.887Z,72.34
2018-12-21T06:57:56.290Z,73.74
2018-12-21T07:00:25.548Z,73.17
2018-12-21T07:02:53.810Z,74.02
2018-12-21T07:05:22.511Z,73.76
2018-12-21T07:07:51.921Z,72.97
2018-12-21T07:10:20.771Z,73.55
2018-12-21T07:12:51.558Z,75.20
2018-12-21T07:15:20.957Z,74.08
2018-12-21T07:17:52.690Z,73.50
2018-12-21T07:20:23.396Z,73.35
2018-12-21T07:22:51.969Z,75.06
2018-12-21T07:25:26.781Z,75.35
2018-12-21T07:28:51.143Z,76.13
2018-12-21T07:31:22.180Z,76.04
2018-12-21T07:33:53.125Z,75.19
2018-12-21T07:36:24.868Z,75.04
2018-12-21T07:38:56.721Z,73.61
2018-12-21T07:41:27.784Z,73.13
2018-12-21T07:43:56.344Z,73.63
2018-12-21T07:46:30.377Z,73.69
2018-12-21T07:48:59.742Z,73.98
2018-12-21T07:51:28.591Z,73.11
2018-12-21T07:53:58.754Z,73.10
2018-12-21T07:56:28.060Z,73.58
2018-12-21T07:58:57.521Z,73.42
2018-12-21T08:01:28.445Z,72.76
2018-12-21T08:03:57.229Z,72.64
2018-12-21T08:06:28.028Z,73.31
2018-12-21T08:08:57.250Z,73.28
2018-12-21T08:11:26.531Z,72.66
2018-12-21T08:13:58.050Z,72.90
2018-12-21T08:16:28.721Z,72.46
2018-12-21T08:19:01.624Z,73.18
2018-12-21T08:21:35.911Z,72.50
2018-12-21T08:24:12.472Z,72.98
2018-12-21T08:26:41.029Z,72.50
2018-12-21T08:29:11.679Z,73.01
2018-12-21T08:31:40.998Z,73.84
2018-12-21T08:34:10.876Z,73.56
2018-12-21T08:36:41.388Z,73.57
2018-12-21T08:39:16.864Z,73.42
2018-12-21T08:41:46.350Z,73.82
2018-12-21T08:44:15.381Z,74.11
2018-12-21T08:46:46.752Z,73.98
2018-12-21T08:49:15.663Z,73.42
2018-12-21T08:51:44.426Z,75.15
2018-12-21T08:54:14.087Z,74.53
2018-12-21T08:56:42.524Z,74.21
2018-12-21T08:59:11.642Z,74.46
2018-12-21T09:01:43.162Z,75.15
2018-12-21T09:04:14.578Z,74.91
2018-12-21T09:06:44.491Z,74.89
2018-12-21T09:09:13.067Z,74.77
2018-12-21T09:11:43.837Z,74.69
2018-12-21T09:14:14.153Z,75.39
2018-12-21T09:16:45.892Z,75.21
2018-12-21T09:19:14.903Z,74.93
2018-12-21T09:21:49.815Z,75.11
2018-12-21T09:24:23.328Z,74.73
2018-12-21T09:26:57.569Z,74.62
2018-12-21T09:29:26.585Z,74.74
2018-12-21T09:31:56.305Z,75.24
2018-12-21T09:34:26.312Z,74.75
2018-12-21T09:37:00.009Z,75.83
2018-12-21T09:39:32.660Z,77.27
2018-12-21T09:42:03.340Z,78.04
2018-12-21T09:44:35.679Z,76.65
2018-12-21T09:47:19.417Z,77.86
2018-12-21T09:49:49.904Z,77.25
2018-12-21T09:52:20.220Z,77.00
2018-12-21T09:54:51.801Z,76.90
2018-12-21T09:57:27.366Z,76.84
2018-12-21T09:59:59.955Z,76.45
2018-12-21T10:02:35.848Z,77.43
2018-12-21T10:05:05.626Z,77.38
2018-12-21T10:07:35.901Z,77.87
2018-12-21T10:10:06.920Z,77.30
2018-12-21T10:12:38.209Z,78.49
2018-12-21T10:15:15.182Z,79.14
2018-12-21T10:17:44.450Z,79.45
2018-12-21T10:20:28.009Z,80.28
2018-12-21T10:23:01.525Z,80.64
2018-12-21T10:25:32.123Z,81.20
2018-12-21T10:28:01.214Z,80.10
2018-12-21T10:30:34.815Z,81.26
2018-12-21T10:33:06.304Z,80.80
2018-12-21T10:35:40.110Z,80.01
2018-12-21T10:38:08.684Z,79.69
2018-12-21T10:40:38.391Z,80.30
2018-12-21T10:43:09.144Z,81.00
2018-12-21T10:45:44.000Z,80.50
2018-12-21T10:48:26.688Z,80.90
2018-12-21T10:50:56.449Z,80.36
2018-12-21T10:53:33.312Z,80.04
2018-12-21T10:56:13.815Z,79.38
2018-12-21T10:58:46.755Z,79.00
2018-12-21T11:01:18.084Z,79.14
2018-12-21T11:03:58.282Z,78.43
2018-12-21T11:06:34.268Z,77.70
2018-12-21T11:09:08.169Z,77.22
2018-12-21T11:12:35.783Z,77.16
2018-12-21T11:15:07.309Z,76.01
2018-12-21T11:20:17.632Z,76.06
2018-12-21T11:22:48.023Z,76.37
2018-12-21T11:25:37.671Z,76.41
2018-12-21T11:29:21.197Z,75.32
2018-12-21T11:31:51.547Z,74.80
2018-12-21T11:34:24.875Z,74.70
2018-12-21T11:36:59.727Z,74.34
2018-12-21T11:39:35.710Z,73.97
2018-12-21T11:42:07.798Z,73.99
2018-12-21T11:44:40.094Z,74.27
2018-12-21T11:47:08.864Z,73.08
2018-12-21T11:49:37.142Z,73.01
2018-12-21T11:52:07.022Z,73.32
2018-12-21T11:54:44.218Z,72.85
2018-12-21T11:57:14.817Z,72.64
2018-12-21T11:59:45.046Z,72.94
2018-12-21T12:02:25.937Z,72.52
2018-12-21T12:04:57.086Z,74.31
2018-12-21T12:07:33.740Z,73.94
2018-12-21T12:10:26.009Z,74.54
2018-12-21T12:12:57.611Z,73.37
2018-12-21T12:15:28.636Z,73.32
2018-12-21T12:21:45.950Z,72.24
2018-12-21T12:24:20.045Z,72.14
2018-12-21T12:26:48.657Z,72.59
2018-12-21T12:29:23.086Z,72.31
2018-12-21T12:31:53.721Z,72.73
2018-12-21T12:34:23.612Z,72.62
2018-12-21T12:36:51.979Z,73.32
2018-12-21T12:39:20.271Z,73.48
2018-12-21T12:41:54.628Z,73.89
2018-12-21T12:44:24.106Z,74.15
2018-12-21T12:46:54.849Z,75.32
2018-12-21T12:49:28.060Z,74.71
2018-12-21T12:52:06.471Z,74.85
2018-12-21T12:54:37.887Z,74.07
2018-12-21T12:57:08.549Z,74.81
2018-12-21T12:59:41.688Z,74.69
2018-12-21T13:02:15.943Z,75.16
2018-12-21T13:04:55.432Z,74.26
2018-12-21T13:10:29.001Z,73.30
2018-12-21T13:13:04.039Z,73.08
2018-12-21T13:15:49.972Z,72.43
2018-12-21T13:18:31.223Z,71.39
2018-12-21T13:21:16.342Z,71.49
2018-12-21T13:23:58.852Z,71.18
2018-12-21T13:26:30.407Z,69.82
2018-12-21T13:29:06.203Z,70.07
2018-12-21T13:31:37.186Z,68.02
2018-12-21T13:34:15.890Z,68.64
2018-12-21T13:37:02.370Z,67.38
2018-12-21T13:39:37.688Z,67.35
2018-12-21T13:42:27.152Z,65.47
2018-12-21T13:44:57.981Z,66.67
2018-12-21T13:47:27.746Z,65.35
2018-12-21T13:49:59.135Z,64.19
2018-12-21T13:52:27.722Z,62.84
2018-12-21T13:55:04.639Z,63.16
2018-12-21T13:57:38.078Z,62.18
2018-12-21T14:00:19.946Z,61.73
2018-12-21T14:02:51.587Z,60.70
2018-12-21T14:05:27.160Z,59.98
2018-12-21T14:08:05.921Z,60.26
2018-12-21T14:10:38.532Z,60.02
2018-12-21T14:13:08.757Z,59.46
2018-12-21T14:15:47.045Z,59.65
2018-12-21T14:18:18.173Z,58.96
2018-12-21T14:20:50.288Z,58.62
2018-12-21T14:23:20.801Z,58.77
2018-12-21T14:25:50.499Z,58.76
2018-12-21T14:28:30.424Z,57.75
2018-12-21T14:31:11.205Z,57.80
2018-12-21T14:33:45.409Z,57.65
2018-12-21T14:36:16.585Z,57.04
2018-12-21T14:38:51.727Z,56.57
2018-12-21T14:41:22.677Z,56.56
2018-12-21T14:44:01.708Z,57.14
2018-12-21T14:46:40.812Z,56.10
2018-12-21T14:49:20.940Z,56.58
2018-12-21T14:51:49.843Z,56.13
2018-12-21T14:54:25.152Z,55.98
2018-12-21T14:56:59.834Z,56.02
2018-12-21T14:59:32.484Z,55.84
2018-12-21T15:02:08.115Z,56.47
2018-12-21T15:04:43.099Z,56.95
2018-12-21T15:07:22.946Z,56.29
2018-12-21T15:09:55.328Z,55.74
2018-12-21T15:12:29.707Z,55.41
2018-12-21T15:15:00.335Z,55.19
2018-12-21T15:17:37.187Z,54.93
2018-12-21T15:20:12.227Z,55.18
2018-12-21T15:22:41.713Z,55.77
2018-12-21T15:25:15.581Z,54.84
2018-12-21T15:27:45.841Z,54.19
2018-12-21T15:30:18.738Z,54.70
2018-12-21T15:32:49.836Z,54.23
2018-12-21T15:35:25.050Z,54.40
2018-12-21T15:37:54.609Z,54.72
2018-12-21T15:40:33.158Z,53.86
2018-12-21T15:43:05.291Z,54.02
2018-12-21T15:45:37.771Z,54.36
2018-12-21T15:48:13.790Z,53.54
2018-12-21T15:50:47.272Z,52.77
2018-12-21T15:53:16.396Z,52.92
2018-12-21T15:55:54.557Z,53.16
2018-12-21T15:58:18.019Z,53.20
2018-12-21T16:00:56.085Z,53.41
2018-12-21T16:03:26.662Z,53.11
2018-12-21T16:05:59.369Z,53.45
2018-12-21T16:08:31.128Z,53.47
2018-12-21T16:11:00.176Z,53.14
2018-12-21T16:13:35.419Z,53.19
2018-12-21T16:16:21.701Z,53.51
2018-12-21T16:18:51.151Z,53.94
2018-12-21T16:21:25.409Z,54.21
2018-12-21T16:23:55.131Z,53.43
2018-12-21T16:26:30.430Z,54.36
2018-12-21T16:29:13.546Z,53.98
2018-12-21T16:31:55.532Z,54.82
2018-12-21T16:34:34.463Z,54.47
2018-12-21T16:37:05.800Z,54.92
2018-12-21T16:39:51.868Z,54.61
2018-12-21T16:42:26.158Z,55.86
2018-12-21T16:44:59.369Z,55.32
2018-12-21T16:47:31.368Z,55.14
2018-12-21T16:50:05.091Z,55.42
2018-12-21T16:52:35.716Z,55.73
2018-12-21T16:55:08.797Z,55.86
2018-12-21T16:57:38.635Z,55.34
2018-12-21T17:00:17.368Z,55.84
2018-12-21T17:02:57.044Z,55.31
2018-12-21T17:05:27.133Z,55.56
2018-12-21T17:07:57.438Z,55.46
2018-12-21T17:10:26.996Z,55.39
2018-12-21T17:12:56.703Z,56.22
2018-12-21T17:15:31.335Z,56.14
2018-12-21T17:18:00.739Z,56.63
2018-12-21T17:20:31.477Z,56.64
2018-12-21T17:23:03.615Z,56.93
2018-12-21T17:25:35.172Z,56.60
2018-12-21T17:28:13.694Z,57.11
2018-12-21T17:30:45.092Z,56.43
2018-12-21T17:33:26.155Z,57.17
2018-12-21T17:35:58.831Z,56.48
2018-12-21T17:38:34.081Z,57.26
2018-12-21T17:41:05.425Z,56.75
2018-12-21T17:43:48.433Z,57.55
2018-12-21T17:46:23.895Z,56.80
2018-12-21T17:48:52.298Z,57.57
2018-12-21T17:51:26.705Z,57.76
2018-12-21T17:53:56.319Z,57.42
2018-12-21T17:56:29.979Z,57.81
2018-12-21T17:59:03.332Z,57.10
2018-12-21T18:01:43.267Z,57.85
2018-12-21T18:04:23.209Z,57.29
2018-12-21T18:07:02.593Z,57.95
2018-12-21T18:09:40.052Z,57.59
2018-12-21T18:12:15.545Z,57.69
2018-12-21T18:14:50.672Z,58.10
2018-12-21T18:17:22.613Z,58.42
2018-12-21T18:19:56.435Z,58.38
2018-12-21T18:22:28.154Z,58.28
2018-12-21T18:25:04.984Z,59.02
2018-12-21T18:27:38.820Z,58.26
2018-12-21T18:33:10.920Z,58.49
2018-12-21T18:35:45.338Z,59.29
2018-12-21T18:41:30.107Z,60.03
2018-12-21T18:44:09.448Z,60.41
2018-12-21T18:46:54.616Z,60.96
2018-12-21T18:49:38.759Z,60.70
2018-12-21T18:52:24.992Z,60.17
2018-12-21T18:54:56.958Z,60.14
2018-12-21T18:57:40.696Z,60.57
2018-12-21T19:00:19.724Z,61.16
2018-12-21T19:02:59.762Z,61.54
2018-12-21T19:05:37.791Z,61.40
2018-12-21T19:08:07.903Z,60.47
2018-12-21T19:10:42.278Z,59.39
2018-12-21T19:13:18.314Z,59.14
2018-12-21T19:16:00.591Z,58.75
2018-12-21T19:18:37.465Z,58.78
2018-12-21T19:21:12.124Z,58.82
2018-12-21T19:23:51.835Z,58.60
2018-12-21T19:26:34.771Z,58.73
2018-12-21T19:29:07.760Z,58.76
2018-12-21T19:31:50.838Z,58.51
2018-12-21T19:34:31.998Z,57.09
2018-12-21T19:37:19.173Z,57.23
2018-12-21T19:39:59.624Z,57.29
2018-12-21T19:42:36.102Z,56.98
2018-12-21T19:48:16.845Z,56.57
2018-12-21T19:50:47.366Z,56.27
2018-12-21T19:53:18.728Z,56.13
2018-12-21T19:55:58.513Z,56.35
2018-12-21T19:58:29.316Z,55.58
2018-12-21T20:01:02.679Z,55.24
2018-12-21T20:03:34.733Z,55.58
2018-12-21T20:06:08.380Z,54.93
2018-12-21T20:08:37.775Z,55.78
2018-12-21T20:11:09.667Z,55.52
2018-12-21T20:13:54.486Z,55.30
2018-12-21T20:21:22.439Z,55.89
2018-12-21T20:23:56.087Z,56.28
2018-12-21T20:26:27.404Z,56.65
2018-12-21T20:32:16.973Z,57.74
2018-12-21T20:34:56.487Z,58.05
2018-12-21T20:37:46.271Z,57.30
2018-12-21T20:40:17.852Z,57.96
2018-12-21T20:42:54.379Z,57.49
2018-12-21T20:45:35.532Z,57.62
2018-12-21T20:48:08.720Z,58.15
2018-12-21T20:50:41.283Z,57.80
2018-12-21T20:53:21.410Z,58.59
2018-12-21T20:56:08.670Z,58.30
2018-12-21T20:58:47.835Z,59.18
2018-12-21T21:01:18.610Z,59.14
2018-12-21T21:03:49.713Z,58.82
2018-12-21T21:06:24.343Z,59.29
2018-12-21T21:08:56.464Z,59.29
2018-12-21T21:11:27.475Z,59.30
2018-12-21T21:14:03.025Z,59.49
2018-12-21T21:16:36.312Z,59.72
2018-12-21T21:19:11.255Z,59.22
2018-12-21T21:21:41.342Z,59.94
2018-12-21T21:24:14.381Z,59.54
2018-12-21T21:26:45.090Z,59.21
2018-12-21T21:29:15.812Z,59.36
2018-12-21T21:31:54.549Z,58.84
2018-12-21T21:34:28.440Z,59.17
2018-12-21T21:36:58.997Z,59.57
2018-12-21T21:39:30.836Z,59.23
2018-12-21T21:42:17.141Z,59.31
2018-12-21T21:44:49.383Z,59.46
2018-12-21T21:47:26.760Z,58.82
2018-12-21T21:49:56.934Z,58.65
2018-12-21T21:55:12.375Z,59.10
2018-12-21T21:57:44.346Z,59.09
2018-12-21T22:00:18.004Z,59.03
2018-12-21T22:02:51.073Z,59.35
2018-12-21T22:05:26.590Z,58.93
2018-12-21T22:08:02.128Z,59.54
2018-12-21T22:10:32.687Z,59.40
2018-12-21T22:13:08.096Z,59.04
2018-12-21T22:15:38.895Z,58.43
2018-12-21T22:18:09.992Z,59.17
2018-12-21T22:20:41.502Z,59.25
2018-12-21T22:23:13.732Z,59.55
2018-12-21T22:25:53.421Z,59.75
2018-12-21T22:28:24.475Z,59.62
2018-12-21T22:30:58.984Z,59.38
2018-12-21T22:33:39.102Z,60.01
2018-12-21T22:36:13.947Z,59.97
2018-12-21T22:38:46.392Z,59.88
2018-12-21T22:43:19.143Z,60.14
2018-12-21T22:48:46.682Z,60.24
2018-12-21T22:51:24.953Z,60.67
2018-12-21T22:53:58.758Z,60.27
2018-12-21T22:56:32.275Z,60.25
2018-12-21T22:59:01.411Z,60.18
2018-12-21T23:01:33.239Z,59.94
2018-12-21T23:04:09.658Z,60.59
2018-12-21T23:06:39.578Z,60.55
2018-12-21T23:09:10.320Z,60.65
2018-12-21T23:11:50.221Z,59.90
2018-12-21T23:14:37.395Z,60.90
2018-12-21T23:17:11.986Z,60.82
2018-12-21T23:19:41.563Z,60.85
2018-12-21T23:22:12.559Z,60.22
2018-12-21T23:24:41.919Z,60.37
2018-12-21T23:27:13.817Z,60.66
2018-12-21T23:29:43.550Z,60.92
2018-12-21T23:32:15.427Z,60.52
2018-12-21T23:34:47.454Z,60.92
2018-12-21T23:37:16.751Z,60.90
2018-12-21T23:39:47.099Z,60.51
2018-12-21T23:45:19.319Z,60.24
2018-12-21T23:47:49.904Z,60.50
2018-12-21T23:50:20.840Z,61.11
2018-12-21T23:53:01.784Z,61.58
2018-12-21T23:55:36.798Z,61.26
2018-12-21T23:58:13.833Z,61.63
